createdAt,value
2023-03-16T00:00:32.943Z,47.31
2023-03-16T00:03:47.123Z,47.56
2023-03-16T00:07:09.558Z,47.65
2023-03-16T00:10:43.579Z,47.64
2023-03-16T00:14:06.619Z,47.83
2023-03-16T00:17:28.573Z,48.11
2023-03-16T00:20:51.537Z,47.97
2023-03-16T00:24:11.526Z,47.28
2023-03-16T00:27:35.464Z,47.74
2023-03-16T00:30:58.536Z,47.90
2023-03-16T00:34:15.546Z,48.07
2023-03-16T00:37:35.512Z,48.61
2023-03-16T00:41:05.542Z,48.60
2023-03-16T00:44:29.683Z,49.34
2023-03-16T00:47:46.603Z,49.83
2023-03-16T00:51:04.437Z,50.01
2023-03-16T00:54:24.521Z,50.36
2023-03-16T00:57:50.438Z,50.81
2023-03-16T01:01:16.660Z,50.29
2023-03-16T01:04:20.429Z,50.23
2023-03-16T01:07:27.635Z,50.33
2023-03-16T01:10:36.426Z,49.93
2023-03-16T01:13:58.992Z,49.90
2023-03-16T01:17:21.068Z,50.26
2023-03-16T01:20:43.059Z,49.20
2023-03-16T01:23:55.229Z,48.46
2023-03-16T01:27:19.321Z,48.18
2023-03-16T01:30:47.407Z,47.69
2023-03-16T01:34:13.163Z,47.40
2023-03-16T01:37:34.109Z,47.28
2023-03-16T01:40:56.166Z,48.68
2023-03-16T01:43:59.589Z,49.64
2023-03-16T01:47:09.930Z,49.91
2023-03-16T01:50:26.401Z,50.09
2023-03-16T01:53:41.837Z,51.05
2023-03-16T01:57:09.001Z,50.74
2023-03-16T02:00:24.736Z,50.38
2023-03-16T02:03:43.275Z,51.35
2023-03-16T02:07:07.578Z,51.08
2023-03-16T02:10:20.647Z,50.90
2023-03-16T02:13:29.732Z,50.92
2023-03-16T02:16:35.636Z,50.62
2023-03-16T02:19:53.132Z,51.54
2023-03-16T02:23:06.252Z,50.84
2023-03-16T02:26:31.392Z,51.07
2023-03-16T02:30:00.270Z,51.18
2023-03-16T02:33:07.654Z,51.64
2023-03-16T02:36:34.111Z,51.40
2023-03-16T02:39:57.308Z,51.58
2023-03-16T02:43:02.965Z,51.68
2023-03-16T02:46:09.058Z,51.11
2023-03-16T02:49:30.434Z,51.73
2023-03-16T02:52:35.896Z,52.14
2023-03-16T02:55:53.043Z,51.92
2023-03-16T02:59:21.686Z,52.02
2023-03-16T03:02:32.182Z,51.86
2023-03-16T03:05:36.896Z,51.95
2023-03-16T03:08:44.595Z,52.41
2023-03-16T03:12:01.257Z,52.42
2023-03-16T03:15:08.162Z,52.35
2023-03-16T03:18:30.237Z,52.31
2023-03-16T03:21:33.219Z,52.49
2023-03-16T03:24:39.141Z,52.25
2023-03-16T03:28:01.819Z,52.04
2023-03-16T03:31:24.936Z,52.76
2023-03-16T03:34:34.879Z,52.71
2023-03-16T03:37:38.013Z,52.39
2023-03-16T03:40:42.800Z,52.67
2023-03-16T03:43:51.225Z,52.89
2023-03-16T03:47:05.927Z,53.59
2023-03-16T03:50:14.293Z,53.39
2023-03-16T03:53:28.173Z,53.38
2023-03-16T03:57:01.128Z,53.41
2023-03-16T04:00:13.420Z,53.70
2023-03-16T04:03:27.160Z,53.83
2023-03-16T04:06:42.881Z,53.47
2023-03-16T04:10:10.860Z,53.37
2023-03-16T04:13:35.669Z,53.46
2023-03-16T04:16:51.002Z,53.11
2023-03-16T04:20:08.867Z,52.76
2023-03-16T04:23:21.825Z,52.88
2023-03-16T04:26:34.439Z,52.50
2023-03-16T04:29:40.056Z,52.18
2023-03-16T04:33:03.889Z,52.10
2023-03-16T04:36:26.787Z,52.25
2023-03-16T04:39:45.346Z,52.34
2023-03-16T04:43:01.165Z,52.11
2023-03-16T04:46:20.943Z,52.11
2023-03-16T04:49:46.744Z,52.37
2023-03-16T04:53:11.480Z,52.26
2023-03-16T04:56:27.918Z,52.00
2023-03-16T04:59:36.701Z,52.74
2023-03-16T05:03:05.007Z,52.14
2023-03-16T05:06:14.569Z,51.81
2023-03-16T05:09:20.908Z,52.07
2023-03-16T05:12:27.118Z,51.80
2023-03-16T05:15:45.997Z,51.91
2023-03-16T05:19:06.991Z,52.34
2023-03-16T05:22:32.663Z,51.85
2023-03-16T05:26:01.187Z,52.15
2023-03-16T05:29:16.792Z,51.94
2023-03-16T05:32:31.885Z,52.05
2023-03-16T05:35:35.891Z,52.66
2023-03-16T05:38:45.727Z,52.62
2023-03-16T05:42:06.525Z,52.21
2023-03-16T05:45:29.100Z,52.39
2023-03-16T05:48:47.918Z,51.91
2023-03-16T05:52:10.380Z,51.91
2023-03-16T05:55:26.846Z,51.87
2023-03-16T05:58:48.669Z,52.07
2023-03-16T06:02:17.731Z,51.98
2023-03-16T06:05:38.426Z,52.39
2023-03-16T06:09:00.375Z,51.65
2023-03-16T06:12:23.473Z,51.37
2023-03-16T06:15:46.554Z,51.52
2023-03-16T06:19:08.496Z,51.39
2023-03-16T06:22:30.529Z,50.53
2023-03-16T06:25:53.440Z,50.66
2023-03-16T06:29:17.667Z,50.25
2023-03-16T06:37:38.647Z,48.68
2023-03-16T06:41:00.792Z,49.51
2023-03-16T06:44:19.534Z,48.76
2023-03-16T06:47:43.725Z,47.87
2023-03-16T06:51:02.720Z,47.87
2023-03-16T06:54:24.638Z,48.21
2023-03-16T06:57:28.265Z,48.37
2023-03-16T07:00:54.720Z,47.09
2023-03-16T07:04:46.952Z,47.38
2023-03-16T07:07:57.026Z,47.43
2023-03-16T07:12:44.278Z,49.26
2023-03-16T07:15:52.291Z,48.16
2023-03-16T07:19:17.392Z,48.32
2023-03-16T07:22:34.677Z,48.54
2023-03-16T07:25:39.363Z,47.95
2023-03-16T07:34:02.575Z,47.47
2023-03-16T07:37:18.281Z,47.15
2023-03-16T07:40:24.288Z,47.51
2023-03-16T07:43:29.440Z,47.27
2023-03-16T07:46:35.393Z,47.86
2023-03-16T07:49:55.976Z,47.12
2023-03-16T07:53:03.045Z,47.28
2023-03-16T07:56:06.463Z,46.97
2023-03-16T07:59:12.460Z,45.97
2023-03-16T08:02:20.179Z,46.98
2023-03-16T08:05:27.808Z,46.71
2023-03-16T08:08:36.847Z,45.78
2023-03-16T08:11:42.068Z,46.20
2023-03-16T08:14:46.437Z,44.85
2023-03-16T08:17:56.874Z,43.07
2023-03-16T08:21:01.778Z,43.95
2023-03-16T08:24:05.591Z,44.45
2023-03-16T08:27:09.352Z,45.25
2023-03-16T08:30:16.976Z,43.47
2023-03-16T08:33:28.434Z,43.53
2023-03-16T08:36:32.366Z,43.71
2023-03-16T08:39:43.119Z,42.91
2023-03-16T08:42:54.522Z,41.99
2023-03-16T08:46:12.820Z,40.95
2023-03-16T08:49:33.653Z,40.51
2023-03-16T08:52:44.127Z,40.38
2023-03-16T08:55:48.868Z,39.67
2023-03-16T08:58:53.612Z,40.84
2023-03-16T09:02:00.685Z,41.41
2023-03-16T09:05:05.302Z,39.89
2023-03-16T09:08:09.857Z,40.68
2023-03-16T09:11:15.156Z,40.61
2023-03-16T09:14:19.213Z,40.55
2023-03-16T09:17:23.259Z,40.20
2023-03-16T09:20:29.993Z,41.39
2023-03-16T09:23:34.629Z,40.84
2023-03-16T09:26:39.995Z,41.35
2023-03-16T09:29:43.933Z,40.46
2023-03-16T09:32:49.071Z,39.78
2023-03-16T09:35:56.062Z,39.77
2023-03-16T09:38:59.268Z,39.77
2023-03-16T09:42:16.631Z,39.52
2023-03-16T09:45:46.411Z,35.29
2023-03-16T09:49:01.960Z,34.58
2023-03-16T09:52:42.090Z,34.90
2023-03-16T09:56:15.118Z,35.40
2023-03-16T09:59:29.852Z,35.34
2023-03-16T10:02:52.933Z,34.40
2023-03-16T10:06:09.718Z,34.73
2023-03-16T10:09:50.134Z,34.27
2023-03-16T10:13:04.474Z,34.08
2023-03-16T10:16:45.665Z,34.11
2023-03-16T10:20:00.211Z,33.71
2023-03-16T10:23:27.928Z,33.35
2023-03-16T10:26:46.666Z,33.35
2023-03-16T10:30:09.708Z,32.44
2023-03-16T10:34:04.644Z,33.51
2023-03-16T10:37:26.908Z,32.27
2023-03-16T10:40:45.314Z,32.55
2023-03-16T10:43:53.079Z,31.09
2023-03-16T10:47:03.526Z,31.71
2023-03-16T10:50:16.938Z,31.59
2023-03-16T10:53:26.641Z,31.42
2023-03-16T10:56:37.227Z,31.19
2023-03-16T10:59:51.786Z,30.15
2023-03-16T11:02:59.837Z,30.30
2023-03-16T11:06:14.639Z,29.90
2023-03-16T11:13:39.153Z,27.00
2023-03-16T11:16:54.013Z,27.82
2023-03-16T11:20:13.629Z,27.87
2023-03-16T11:23:38.335Z,28.18
2023-03-16T11:26:44.499Z,28.17
2023-03-16T11:30:18.872Z,27.33
2023-03-16T11:33:23.269Z,26.98
2023-03-16T11:36:52.664Z,27.36
2023-03-16T11:40:09.509Z,26.44
2023-03-16T11:43:39.359Z,26.61
2023-03-16T11:46:55.369Z,25.36
2023-03-16T11:50:05.854Z,25.49
2023-03-16T11:53:33.258Z,25.26
2023-03-16T11:56:43.144Z,24.81
2023-03-16T12:00:04.080Z,22.82
2023-03-16T12:03:48.476Z,22.38
2023-03-16T12:07:23.387Z,22.60
2023-03-16T12:10:36.810Z,22.27
2023-03-16T12:14:17.640Z,21.99
2023-03-16T12:17:42.998Z,21.94
2023-03-16T12:21:26.886Z,20.00
2023-03-16T12:24:42.596Z,19.35
2023-03-16T12:27:48.283Z,19.18
2023-03-16T12:31:04.769Z,19.79
2023-03-16T12:34:31.013Z,18.85
2023-03-16T12:38:00.953Z,18.54
2023-03-16T12:41:17.968Z,18.29
2023-03-16T12:44:33.749Z,17.34
2023-03-16T12:48:12.812Z,16.39
2023-03-16T12:51:17.495Z,15.38
2023-03-16T12:54:24.010Z,17.08
2023-03-16T12:57:27.307Z,16.05
2023-03-16T13:00:41.379Z,14.85
2023-03-16T13:04:09.880Z,14.44
2023-03-16T13:07:35.341Z,13.95
2023-03-16T13:11:18.531Z,15.95
2023-03-16T13:14:47.606Z,14.75
2023-03-16T13:18:06.847Z,13.55
2023-03-16T13:21:39.875Z,13.11
2023-03-16T13:24:51.898Z,14.10
2023-03-16T13:27:56.344Z,13.34
2023-03-16T13:31:00.759Z,13.02
2023-03-16T13:34:19.937Z,13.00
2023-03-16T13:37:25.214Z,12.16
2023-03-16T13:40:28.360Z,12.76
2023-03-16T13:43:35.850Z,13.06
2023-03-16T13:46:43.076Z,15.06
2023-03-16T13:50:11.492Z,15.91
2023-03-16T13:53:35.547Z,16.11
2023-03-16T13:56:56.322Z,16.96
2023-03-16T14:00:16.623Z,17.19
2023-03-16T14:03:22.460Z,17.58
2023-03-16T14:06:32.180Z,18.06
2023-03-16T14:09:45.365Z,17.58
2023-03-16T14:12:58.887Z,18.26
2023-03-16T14:16:16.748Z,17.80
2023-03-16T14:19:26.572Z,17.21
2023-03-16T14:22:37.221Z,15.76
2023-03-16T14:25:40.947Z,15.64
2023-03-16T14:29:06.332Z,16.18
2023-03-16T14:32:28.383Z,15.83
2023-03-16T14:35:55.859Z,14.51
2023-03-16T14:39:13.762Z,14.37
2023-03-16T14:42:25.023Z,15.35
2023-03-16T14:45:33.022Z,16.56
2023-03-16T14:48:36.632Z,17.18
2023-03-16T14:51:59.912Z,17.79
2023-03-16T14:55:19.801Z,17.77
2023-03-16T14:58:23.416Z,18.26
2023-03-16T15:01:27.057Z,17.66
2023-03-16T15:04:43.834Z,17.02
2023-03-16T15:08:08.613Z,17.58
2023-03-16T15:11:30.215Z,15.71
2023-03-16T15:14:52.510Z,14.19
2023-03-16T15:17:55.207Z,15.21
2023-03-16T15:20:57.747Z,16.36
2023-03-16T15:24:01.516Z,17.28
2023-03-16T15:27:04.264Z,17.21
2023-03-16T15:30:16.627Z,17.36
2023-03-16T15:33:19.902Z,17.42
2023-03-16T15:36:22.908Z,17.96
2023-03-16T15:39:25.881Z,17.48
2023-03-16T15:42:28.889Z,17.75
2023-03-16T15:45:31.521Z,17.40
2023-03-16T15:48:35.061Z,17.83
2023-03-16T15:51:37.789Z,17.41
2023-03-16T15:54:41.589Z,17.75
2023-03-16T15:57:45.513Z,17.65
2023-03-16T16:00:48.940Z,17.87
2023-03-16T16:03:54.375Z,18.24
2023-03-16T16:06:57.932Z,18.56
2023-03-16T16:10:02.415Z,18.55
2023-03-16T16:13:05.654Z,18.24
2023-03-16T16:16:12.168Z,18.84
2023-03-16T16:19:16.168Z,18.99
2023-03-16T16:22:20.140Z,18.23
2023-03-16T16:25:24.885Z,18.64
2023-03-16T16:28:33.431Z,18.06
2023-03-16T16:31:36.903Z,18.49
2023-03-16T16:34:39.552Z,18.74
2023-03-16T16:37:44.831Z,18.81
2023-03-16T16:40:48.683Z,19.27
2023-03-16T16:43:53.663Z,19.75
2023-03-16T16:46:56.700Z,19.19
2023-03-16T16:49:59.307Z,19.93
2023-03-16T16:53:01.916Z,19.78
2023-03-16T16:56:12.711Z,19.47
2023-03-16T16:59:24.489Z,20.11
2023-03-16T17:02:33.138Z,20.42
2023-03-16T17:05:36.574Z,21.16
2023-03-16T17:08:39.958Z,20.67
2023-03-16T17:11:44.232Z,21.38
2023-03-16T17:14:48.552Z,21.16
2023-03-16T17:18:03.127Z,21.13
2023-03-16T17:21:06.382Z,21.75
2023-03-16T17:24:09.400Z,23.05
2023-03-16T17:27:14.579Z,24.12
2023-03-16T17:30:27.528Z,24.02
2023-03-16T17:33:31.946Z,22.79
2023-03-16T17:36:34.547Z,23.24
2023-03-16T17:39:38.106Z,24.43
2023-03-16T17:42:41.438Z,23.60
2023-03-16T17:45:47.155Z,23.82
2023-03-16T17:48:51.842Z,23.75
2023-03-16T17:51:55.705Z,24.88
2023-03-16T17:54:59.144Z,24.72
2023-03-16T17:58:02.280Z,25.54
2023-03-16T18:01:05.168Z,25.43
2023-03-16T18:04:28.473Z,26.31
2023-03-16T18:07:31.796Z,27.44
2023-03-16T18:10:36.770Z,27.67
2023-03-16T18:13:40.472Z,28.37
2023-03-16T18:16:43.348Z,28.59
2023-03-16T18:19:47.026Z,29.35
2023-03-16T18:22:50.434Z,29.76
2023-03-16T18:25:55.929Z,30.60
2023-03-16T18:28:59.566Z,30.39
2023-03-16T18:32:02.277Z,30.85
2023-03-16T18:35:05.388Z,31.40
2023-03-16T18:38:26.331Z,31.43
2023-03-16T18:41:35.060Z,32.14
2023-03-16T18:44:37.630Z,32.09
2023-03-16T18:47:44.024Z,32.19
2023-03-16T18:50:47.068Z,32.39
2023-03-16T18:53:50.174Z,32.98
2023-03-16T18:56:53.989Z,33.02
2023-03-16T18:59:57.186Z,32.70
2023-03-16T19:03:03.340Z,31.57
2023-03-16T19:06:14.461Z,29.75
2023-03-16T19:09:32.139Z,29.50
2023-03-16T19:12:34.762Z,29.12
2023-03-16T19:15:39.312Z,29.33
2023-03-16T19:18:44.831Z,29.71
2023-03-16T19:21:50.519Z,30.02
2023-03-16T19:24:56.211Z,30.03
2023-03-16T19:28:01.297Z,30.73
2023-03-16T19:31:14.420Z,31.23
2023-03-16T19:34:18.587Z,31.59
2023-03-16T19:37:23.922Z,31.46
2023-03-16T19:40:28.685Z,32.01
2023-03-16T19:43:31.669Z,31.92
2023-03-16T19:46:35.420Z,32.21
2023-03-16T19:49:41.795Z,32.68
2023-03-16T19:52:46.769Z,32.54
2023-03-16T19:55:52.746Z,33.03
2023-03-16T19:58:56.244Z,33.21
2023-03-16T20:01:59.182Z,33.45
2023-03-16T20:05:01.977Z,33.57
2023-03-16T20:08:34.177Z,33.86
2023-03-16T20:11:38.169Z,33.60
2023-03-16T20:14:42.221Z,34.04
2023-03-16T20:17:46.108Z,33.93
2023-03-16T20:20:49.753Z,34.50
2023-03-16T20:23:54.089Z,34.25
2023-03-16T20:26:57.438Z,34.34
2023-03-16T20:30:00.723Z,34.01
2023-03-16T20:33:04.399Z,34.53
2023-03-16T20:36:11.638Z,34.75
2023-03-16T20:39:16.155Z,34.57
2023-03-16T20:42:22.561Z,34.41
2023-03-16T20:45:28.934Z,34.79
2023-03-16T20:48:32.760Z,34.61
2023-03-16T20:51:36.221Z,35.10
2023-03-16T20:54:39.492Z,35.55
2023-03-16T20:57:47.359Z,35.44
2023-03-16T21:00:53.088Z,35.42
2023-03-16T21:03:56.943Z,35.28
2023-03-16T21:06:59.532Z,35.27
2023-03-16T21:10:02.197Z,34.90
2023-03-16T21:13:05.043Z,35.45
2023-03-16T21:16:11.385Z,35.22
2023-03-16T21:19:19.858Z,35.41
2023-03-16T21:22:35.032Z,35.12
2023-03-16T21:25:43.852Z,35.49
2023-03-16T21:28:57.603Z,36.09
2023-03-16T21:32:00.239Z,36.94
2023-03-16T21:35:04.291Z,36.97
2023-03-16T21:38:13.952Z,36.97
2023-03-16T21:41:17.402Z,37.85
2023-03-16T21:44:20.768Z,37.67
2023-03-16T21:47:28.864Z,37.97
2023-03-16T21:50:34.390Z,38.38
2023-03-16T21:53:38.456Z,38.55
2023-03-16T21:56:42.396Z,38.70
2023-03-16T21:59:46.585Z,38.64
2023-03-16T22:02:51.827Z,38.46
2023-03-16T22:05:57.185Z,38.98
2023-03-16T22:09:01.251Z,39.50
2023-03-16T22:12:09.840Z,39.45
2023-03-16T22:15:12.858Z,39.72
2023-03-16T22:18:44.780Z,39.16
2023-03-16T22:21:48.425Z,39.84
2023-03-16T22:24:52.217Z,40.26
2023-03-16T22:27:55.372Z,39.82
2023-03-16T22:31:00.911Z,40.16
2023-03-16T22:34:05.029Z,40.71
2023-03-16T22:37:10.178Z,40.60
2023-03-16T22:40:19.938Z,40.88
2023-03-16T22:43:31.145Z,41.26
2023-03-16T22:46:36.660Z,40.90
2023-03-16T22:49:40.484Z,40.81
2023-03-16T22:52:46.269Z,41.22
2023-03-16T22:55:51.372Z,39.51
2023-03-16T22:59:00.801Z,40.90
2023-03-16T23:02:04.011Z,40.60
2023-03-16T23:05:21.818Z,39.68
2023-03-16T23:08:26.715Z,40.11
2023-03-16T23:11:33.120Z,41.22
2023-03-16T23:14:38.099Z,40.15
2023-03-16T23:17:41.504Z,40.42
2023-03-16T23:20:44.793Z,40.10
2023-03-16T23:24:02.691Z,40.19
2023-03-16T23:27:16.497Z,40.87
2023-03-16T23:30:25.814Z,41.67
2023-03-16T23:33:28.984Z,41.06
2023-03-16T23:36:33.565Z,41.48
2023-03-16T23:39:37.061Z,41.99
2023-03-16T23:42:43.362Z,42.19
2023-03-16T23:45:47.217Z,41.65
2023-03-16T23:48:53.452Z,42.08
2023-03-16T23:51:59.478Z,43.39
2023-03-16T23:55:02.089Z,49.94
2023-03-16T23:58:06.703Z,51.48
